KEAU/EAU METAR and TAF weather

Enter ICAO airport designator
Station Type Date Time Source
KEAU METAR 2018/12/10 17:56 UTC NOAA

KEAU 101756Z 23011KT 2 1/2SM BR OVC004 M08/M10 A3014 RMK AO2 SNB15E30 SLP226 P0000 60000 I6000 T10831100 11078 21094 58004


Station Type Date Time Source
KEAU Decoded METAR 2018/12/10 17:56 UTC NOAA

EAU CLAIRE CHIPPEWA VALLEY, WI, United States (KEAU) 44-52N 091-29W
Dec 10, 2018 - 12:56 PM EST / 2018.12.10 1756 UTC
Wind: from the SW (230 degrees) at 13 MPH (11 KT):0
Visibility: 2 1/2 mile(s):0
Sky conditions: overcast
Weather: mist
Precipitation last hour: A trace
Temperature: 17.1 F (-8.3 C)
Windchill: 3 F (-16 C):1
Dew Point: 14.0 F (-10.0 C)
Relative Humidity: 87%
Pressure (altimeter): 30.14 in. Hg (1020 hPa)
Pressure tendency: 0.01 inches (0.4 hPa) lower than three hours ago
ob: KEAU 101756Z 23011KT 2 1/2SM BR OVC004 M08/M10 A3014 RMK AO2 SNB15E30 SLP226 P0000 60000 I6000 T10831100 11078 21094 58004
cycle: 18

Station Type Date Time Source
KEAU TAF 2018/12/10 18:42 UTC NOAA

TAF KEAU 101741Z 1018/1118 22008KT 4SM BR OVC006
FM110200 22006KT 6SM BR FEW008
FM110600 00000KT 1 1/2SM BR OVC003


Example: see airport list